sensor_id;sensor_type;location;lat;lon;timestamp;P1;durP1;ratioP1;P2;durP2;ratioP2
14526;SDS011;7350;51.208;4.238;2022-12-07T00:01:03;12.07;;;8.63;;
14526;SDS011;7350;51.208;4.238;2022-12-07T00:03:31;15.03;;;9.30;;
14526;SDS011;7350;51.208;4.238;2022-12-07T00:06:00;12.73;;;8.43;;
14526;SDS011;7350;51.208;4.238;2022-12-07T00:08:28;10.90;;;8.50;;
14526;SDS011;7350;51.208;4.238;2022-12-07T00:10:58;11.40;;;8.43;;
14526;SDS011;7350;51.208;4.238;2022-12-07T00:13:28;10.53;;;8.40;;
14526;SDS011;7350;51.208;4.238;2022-12-07T00:15:56;13.80;;;8.07;;
14526;SDS011;7350;51.208;4.238;2022-12-07T00:18:26;12.57;;;8.23;;
14526;SDS011;7350;51.208;4.238;2022-12-07T00:20:59;14.27;;;8.40;;
14526;SDS011;7350;51.208;4.238;2022-12-07T00:23:27;12.40;;;9.60;;
14526;SDS011;7350;51.208;4.238;2022-12-07T00:25:54;15.60;;;8.50;;
14526;SDS011;7350;51.208;4.238;2022-12-07T00:28:21;13.27;;;9.00;;
14526;SDS011;7350;51.208;4.238;2022-12-07T00:30:48;12.00;;;8.70;;
14526;SDS011;7350;51.208;4.238;2022-12-07T00:33:15;15.27;;;9.07;;
14526;SDS011;7350;51.208;4.238;2022-12-07T00:35:42;14.17;;;9.20;;
14526;SDS011;7350;51.208;4.238;2022-12-07T00:38:10;15.40;;;10.47;;
14526;SDS011;7350;51.208;4.238;2022-12-07T00:40:37;14.43;;;9.40;;
14526;SDS011;7350;51.208;4.238;2022-12-07T00:43:04;15.60;;;9.40;;
14526;SDS011;7350;51.208;4.238;2022-12-07T00:45:31;16.83;;;9.83;;
14526;SDS011;7350;51.208;4.238;2022-12-07T00:47:58;16.20;;;9.13;;
14526;SDS011;7350;51.208;4.238;2022-12-07T00:50:25;12.97;;;9.17;;
14526;SDS011;7350;51.208;4.238;2022-12-07T00:52:52;17.33;;;9.80;;
14526;SDS011;7350;51.208;4.238;2022-12-07T00:55:20;16.57;;;9.70;;
14526;SDS011;7350;51.208;4.238;2022-12-07T00:57:47;13.63;;;9.73;;
14526;SDS011;7350;51.208;4.238;2022-12-07T01:00:15;18.53;;;9.80;;
14526;SDS011;7350;51.208;4.238;2022-12-07T01:02:42;14.73;;;10.47;;
14526;SDS011;7350;51.208;4.238;2022-12-07T01:05:09;12.43;;;9.50;;
14526;SDS011;7350;51.208;4.238;2022-12-07T01:07:36;13.17;;;9.67;;
14526;SDS011;7350;51.208;4.238;2022-12-07T01:10:04;15.63;;;9.77;;
14526;SDS011;7350;51.208;4.238;2022-12-07T01:12:33;15.17;;;9.23;;
14526;SDS011;7350;51.208;4.238;2022-12-07T01:15:00;13.30;;;8.70;;
14526;SDS011;7350;51.208;4.238;2022-12-07T01:17:28;11.60;;;8.70;;
14526;SDS011;7350;51.208;4.238;2022-12-07T01:19:55;14.50;;;8.20;;
14526;SDS011;7350;51.208;4.238;2022-12-07T01:22:22;11.83;;;8.70;;
14526;SDS011;7350;51.208;4.238;2022-12-07T01:24:48;14.13;;;9.37;;
14526;SDS011;7350;51.208;4.238;2022-12-07T01:27:15;11.53;;;8.83;;
14526;SDS011;7350;51.208;4.238;2022-12-07T01:29:44;12.57;;;8.37;;
14526;SDS011;7350;51.208;4.238;2022-12-07T01:32:11;14.23;;;8.47;;
14526;SDS011;7350;51.208;4.238;2022-12-07T01:34:38;14.17;;;8.30;;
14526;SDS011;7350;51.208;4.238;2022-12-07T01:37:05;15.57;;;8.00;;
14526;SDS011;7350;51.208;4.238;2022-12-07T01:39:32;11.27;;;7.90;;
14526;SDS011;7350;51.208;4.238;2022-12-07T01:41:59;10.30;;;6.83;;
14526;SDS011;7350;51.208;4.238;2022-12-07T01:44:26;13.20;;;7.20;;
14526;SDS011;7350;51.208;4.238;2022-12-07T01:46:57;12.63;;;7.37;;
14526;SDS011;7350;51.208;4.238;2022-12-07T01:49:26;11.97;;;6.70;;
14526;SDS011;7350;51.208;4.238;2022-12-07T01:51:58;12.03;;;6.87;;
14526;SDS011;7350;51.208;4.238;2022-12-07T01:54:33;9.90;;;5.87;;
14526;SDS011;7350;51.208;4.238;2022-12-07T01:57:02;10.13;;;6.50;;
14526;SDS011;7350;51.208;4.238;2022-12-07T01:59:29;8.83;;;6.27;;
14526;SDS011;7350;51.208;4.238;2022-12-07T02:01:58;12.60;;;6.73;;
14526;SDS011;7350;51.208;4.238;2022-12-07T02:04:28;10.57;;;5.90;;
14526;SDS011;7350;51.208;4.238;2022-12-07T02:06:55;11.57;;;5.47;;
14526;SDS011;7350;51.208;4.238;2022-12-07T02:09:23;8.73;;;5.83;;
14526;SDS011;7350;51.208;4.238;2022-12-07T02:11:49;10.90;;;5.83;;
14526;SDS011;7350;51.208;4.238;2022-12-07T02:14:17;10.00;;;5.07;;
14526;SDS011;7350;51.208;4.238;2022-12-07T02:16:47;10.77;;;5.50;;
14526;SDS011;7350;51.208;4.238;2022-12-07T02:19:31;11.03;;;4.43;;
14526;SDS011;7350;51.208;4.238;2022-12-07T02:22:27;12.23;;;5.30;;
14526;SDS011;7350;51.208;4.238;2022-12-07T02:25:10;8.83;;;5.67;;
14526;SDS011;7350;51.208;4.238;2022-12-07T02:27:49;9.67;;;5.23;;
14526;SDS011;7350;51.208;4.238;2022-12-07T02:30:20;8.47;;;5.33;;
14526;SDS011;7350;51.208;4.238;2022-12-07T02:32:51;9.53;;;5.00;;
14526;SDS011;7350;51.208;4.238;2022-12-07T02:35:24;7.70;;;4.90;;
14526;SDS011;7350;51.208;4.238;2022-12-07T02:37:58;8.37;;;4.93;;
14526;SDS011;7350;51.208;4.238;2022-12-07T02:40:30;9.63;;;4.97;;
14526;SDS011;7350;51.208;4.238;2022-12-07T02:43:02;9.93;;;5.23;;
14526;SDS011;7350;51.208;4.238;2022-12-07T02:45:36;9.80;;;5.30;;
14526;SDS011;7350;51.208;4.238;2022-12-07T02:48:07;11.87;;;5.10;;
14526;SDS011;7350;51.208;4.238;2022-12-07T02:50:36;9.67;;;5.00;;
14526;SDS011;7350;51.208;4.238;2022-12-07T02:53:03;13.23;;;5.20;;
14526;SDS011;7350;51.208;4.238;2022-12-07T02:55:31;10.00;;;5.87;;
14526;SDS011;7350;51.208;4.238;2022-12-07T02:58:11;12.93;;;6.23;;
14526;SDS011;7350;51.208;4.238;2022-12-07T03:00:51;12.77;;;5.80;;
14526;SDS011;7350;51.208;4.238;2022-12-07T03:03:23;14.10;;;5.90;;
14526;SDS011;7350;51.208;4.238;2022-12-07T03:05:54;12.60;;;6.53;;
14526;SDS011;7350;51.208;4.238;2022-12-07T03:08:35;12.60;;;6.17;;
14526;SDS011;7350;51.208;4.238;2022-12-07T03:11:09;10.83;;;6.63;;
14526;SDS011;7350;51.208;4.238;2022-12-07T03:13:39;11.57;;;6.40;;
14526;SDS011;7350;51.208;4.238;2022-12-07T03:16:14;11.30;;;5.70;;
14526;SDS011;7350;51.208;4.238;2022-12-07T03:18:43;10.57;;;5.97;;
14526;SDS011;7350;51.208;4.238;2022-12-07T03:21:14;10.90;;;5.93;;
14526;SDS011;7350;51.208;4.238;2022-12-07T03:23:44;11.67;;;6.30;;
14526;SDS011;7350;51.208;4.238;2022-12-07T03:26:15;8.87;;;5.37;;
14526;SDS011;7350;51.208;4.238;2022-12-07T03:28:47;9.47;;;5.40;;
14526;SDS011;7350;51.208;4.238;2022-12-07T03:31:21;11.53;;;5.60;;
14526;SDS011;7350;51.208;4.238;2022-12-07T03:33:52;9.57;;;5.67;;
14526;SDS011;7350;51.208;4.238;2022-12-07T03:36:26;15.17;;;5.87;;
14526;SDS011;7350;51.208;4.238;2022-12-07T03:38:57;8.70;;;4.93;;
14526;SDS011;7350;51.208;4.238;2022-12-07T03:41:30;11.43;;;5.47;;
14526;SDS011;7350;51.208;4.238;2022-12-07T03:44:00;8.40;;;5.17;;
14526;SDS011;7350;51.208;4.238;2022-12-07T03:46:29;11.03;;;5.27;;
14526;SDS011;7350;51.208;4.238;2022-12-07T03:49:04;11.40;;;6.00;;
14526;SDS011;7350;51.208;4.238;2022-12-07T03:51:37;10.67;;;5.77;;
14526;SDS011;7350;51.208;4.238;2022-12-07T03:54:10;7.03;;;5.40;;
14526;SDS011;7350;51.208;4.238;2022-12-07T03:56:41;11.43;;;5.50;;
14526;SDS011;7350;51.208;4.238;2022-12-07T03:59:10;11.83;;;5.33;;
14526;SDS011;7350;51.208;4.238;2022-12-07T04:01:42;7.80;;;4.83;;
14526;SDS011;7350;51.208;4.238;2022-12-07T04:04:09;11.37;;;5.47;;
14526;SDS011;7350;51.208;4.238;2022-12-07T04:06:36;10.87;;;5.70;;
14526;SDS011;7350;51.208;4.238;2022-12-07T04:09:03;12.17;;;6.43;;
14526;SDS011;7350;51.208;4.238;2022-12-07T04:11:30;15.80;;;6.47;;
14526;SDS011;7350;51.208;4.238;2022-12-07T04:13:57;10.53;;;5.80;;
14526;SDS011;7350;51.208;4.238;2022-12-07T04:16:43;14.93;;;5.87;;
14526;SDS011;7350;51.208;4.238;2022-12-07T04:19:10;10.77;;;6.10;;
14526;SDS011;7350;51.208;4.238;2022-12-07T04:21:37;14.03;;;7.43;;
14526;SDS011;7350;51.208;4.238;2022-12-07T04:24:05;11.70;;;6.70;;
14526;SDS011;7350;51.208;4.238;2022-12-07T04:26:32;11.93;;;6.30;;
14526;SDS011;7350;51.208;4.238;2022-12-07T04:28:59;15.37;;;6.67;;
14526;SDS011;7350;51.208;4.238;2022-12-07T04:31:26;13.93;;;6.70;;
14526;SDS011;7350;51.208;4.238;2022-12-07T04:33:54;13.00;;;7.33;;
14526;SDS011;7350;51.208;4.238;2022-12-07T04:36:21;14.83;;;7.77;;
14526;SDS011;7350;51.208;4.238;2022-12-07T04:38:48;14.53;;;6.93;;
14526;SDS011;7350;51.208;4.238;2022-12-07T04:41:15;14.47;;;7.20;;
14526;SDS011;7350;51.208;4.238;2022-12-07T04:43:42;9.07;;;6.37;;
14526;SDS011;7350;51.208;4.238;2022-12-07T04:46:09;13.17;;;6.53;;
14526;SDS011;7350;51.208;4.238;2022-12-07T04:48:36;12.07;;;6.40;;
14526;SDS011;7350;51.208;4.238;2022-12-07T04:51:05;13.33;;;7.43;;
14526;SDS011;7350;51.208;4.238;2022-12-07T04:53:32;11.97;;;8.00;;
14526;SDS011;7350;51.208;4.238;2022-12-07T04:55:59;14.70;;;7.27;;
14526;SDS011;7350;51.208;4.238;2022-12-07T04:58:27;12.87;;;6.80;;
14526;SDS011;7350;51.208;4.238;2022-12-07T05:00:54;14.30;;;7.07;;
14526;SDS011;7350;51.208;4.238;2022-12-07T05:03:21;14.83;;;7.13;;
14526;SDS011;7350;51.208;4.238;2022-12-07T05:05:49;12.60;;;6.50;;
14526;SDS011;7350;51.208;4.238;2022-12-07T05:08:17;9.93;;;6.43;;
14526;SDS011;7350;51.208;4.238;2022-12-07T05:10:44;15.53;;;7.57;;
14526;SDS011;7350;51.208;4.238;2022-12-07T05:13:11;10.53;;;7.13;;
14526;SDS011;7350;51.208;4.238;2022-12-07T05:15:38;13.70;;;7.33;;
14526;SDS011;7350;51.208;4.238;2022-12-07T05:18:05;9.13;;;5.90;;
14526;SDS011;7350;51.208;4.238;2022-12-07T05:20:32;9.73;;;6.10;;
14526;SDS011;7350;51.208;4.238;2022-12-07T05:22:59;14.57;;;7.00;;
14526;SDS011;7350;51.208;4.238;2022-12-07T05:25:27;14.97;;;6.93;;
14526;SDS011;7350;51.208;4.238;2022-12-07T05:27:54;12.60;;;6.47;;
14526;SDS011;7350;51.208;4.238;2022-12-07T05:30:22;13.43;;;6.50;;
14526;SDS011;7350;51.208;4.238;2022-12-07T05:32:49;13.17;;;6.67;;
14526;SDS011;7350;51.208;4.238;2022-12-07T05:35:16;10.17;;;7.23;;
14526;SDS011;7350;51.208;4.238;2022-12-07T05:37:43;11.70;;;6.73;;
14526;SDS011;7350;51.208;4.238;2022-12-07T05:40:11;10.13;;;6.40;;
14526;SDS011;7350;51.208;4.238;2022-12-07T05:42:40;11.40;;;6.40;;
14526;SDS011;7350;51.208;4.238;2022-12-07T05:45:07;13.50;;;7.13;;
14526;SDS011;7350;51.208;4.238;2022-12-07T05:47:35;13.30;;;6.80;;
14526;SDS011;7350;51.208;4.238;2022-12-07T05:50:03;12.03;;;7.53;;
14526;SDS011;7350;51.208;4.238;2022-12-07T05:52:31;11.97;;;6.70;;
14526;SDS011;7350;51.208;4.238;2022-12-07T05:54:58;11.83;;;6.93;;
14526;SDS011;7350;51.208;4.238;2022-12-07T05:57:25;13.70;;;8.07;;
14526;SDS011;7350;51.208;4.238;2022-12-07T05:59:53;13.37;;;7.23;;
14526;SDS011;7350;51.208;4.238;2022-12-07T06:02:19;13.17;;;8.20;;
14526;SDS011;7350;51.208;4.238;2022-12-07T06:04:46;12.10;;;7.13;;
14526;SDS011;7350;51.208;4.238;2022-12-07T06:07:14;14.83;;;7.27;;
14526;SDS011;7350;51.208;4.238;2022-12-07T06:09:42;11.23;;;6.97;;
14526;SDS011;7350;51.208;4.238;2022-12-07T06:12:09;10.27;;;7.03;;
14526;SDS011;7350;51.208;4.238;2022-12-07T06:14:56;11.57;;;8.17;;
14526;SDS011;7350;51.208;4.238;2022-12-07T06:17:23;16.50;;;7.83;;
14526;SDS011;7350;51.208;4.238;2022-12-07T06:19:50;17.23;;;8.73;;
14526;SDS011;7350;51.208;4.238;2022-12-07T06:22:17;13.53;;;8.03;;
14526;SDS011;7350;51.208;4.238;2022-12-07T06:24:44;14.63;;;8.43;;
14526;SDS011;7350;51.208;4.238;2022-12-07T06:27:11;12.60;;;7.83;;
14526;SDS011;7350;51.208;4.238;2022-12-07T06:29:38;12.37;;;8.33;;
14526;SDS011;7350;51.208;4.238;2022-12-07T06:32:07;13.90;;;8.33;;
14526;SDS011;7350;51.208;4.238;2022-12-07T06:34:34;11.63;;;8.30;;
14526;SDS011;7350;51.208;4.238;2022-12-07T06:37:01;14.77;;;8.50;;
14526;SDS011;7350;51.208;4.238;2022-12-07T06:39:29;12.70;;;7.67;;
14526;SDS011;7350;51.208;4.238;2022-12-07T06:41:56;12.73;;;7.57;;
14526;SDS011;7350;51.208;4.238;2022-12-07T06:44:24;17.33;;;7.93;;
14526;SDS011;7350;51.208;4.238;2022-12-07T06:46:51;12.80;;;8.33;;
14526;SDS011;7350;51.208;4.238;2022-12-07T06:49:20;15.20;;;7.97;;
14526;SDS011;7350;51.208;4.238;2022-12-07T06:51:47;12.87;;;8.27;;
14526;SDS011;7350;51.208;4.238;2022-12-07T06:54:15;15.87;;;8.80;;
14526;SDS011;7350;51.208;4.238;2022-12-07T06:56:42;17.20;;;9.23;;
14526;SDS011;7350;51.208;4.238;2022-12-07T06:59:09;18.23;;;8.50;;
14526;SDS011;7350;51.208;4.238;2022-12-07T07:01:36;14.97;;;8.87;;
14526;SDS011;7350;51.208;4.238;2022-12-07T07:04:03;15.60;;;8.40;;
14526;SDS011;7350;51.208;4.238;2022-12-07T07:06:32;15.20;;;8.67;;
14526;SDS011;7350;51.208;4.238;2022-12-07T07:08:59;14.33;;;8.33;;
14526;SDS011;7350;51.208;4.238;2022-12-07T07:11:26;13.67;;;8.20;;
14526;SDS011;7350;51.208;4.238;2022-12-07T07:13:53;15.00;;;8.73;;
14526;SDS011;7350;51.208;4.238;2022-12-07T07:16:22;14.13;;;7.90;;
14526;SDS011;7350;51.208;4.238;2022-12-07T07:18:49;13.37;;;8.27;;
14526;SDS011;7350;51.208;4.238;2022-12-07T07:21:16;11.50;;;7.93;;
14526;SDS011;7350;51.208;4.238;2022-12-07T07:23:44;13.33;;;7.87;;
14526;SDS011;7350;51.208;4.238;2022-12-07T07:26:11;14.53;;;7.90;;
14526;SDS011;7350;51.208;4.238;2022-12-07T07:28:38;12.37;;;8.10;;
14526;SDS011;7350;51.208;4.238;2022-12-07T07:31:05;15.30;;;8.20;;
14526;SDS011;7350;51.208;4.238;2022-12-07T07:33:33;14.03;;;8.00;;
14526;SDS011;7350;51.208;4.238;2022-12-07T07:36:00;11.90;;;7.40;;
14526;SDS011;7350;51.208;4.238;2022-12-07T07:38:27;11.47;;;7.63;;
14526;SDS011;7350;51.208;4.238;2022-12-07T07:40:55;15.93;;;7.60;;
14526;SDS011;7350;51.208;4.238;2022-12-07T07:43:22;16.90;;;7.37;;
14526;SDS011;7350;51.208;4.238;2022-12-07T07:45:49;16.27;;;7.93;;
14526;SDS011;7350;51.208;4.238;2022-12-07T07:48:16;12.90;;;7.77;;
14526;SDS011;7350;51.208;4.238;2022-12-07T07:50:43;11.07;;;6.90;;
14526;SDS011;7350;51.208;4.238;2022-12-07T07:53:10;11.93;;;7.50;;
14526;SDS011;7350;51.208;4.238;2022-12-07T07:55:37;14.87;;;8.10;;
14526;SDS011;7350;51.208;4.238;2022-12-07T07:58:05;15.83;;;8.33;;
14526;SDS011;7350;51.208;4.238;2022-12-07T08:00:32;14.93;;;7.73;;
14526;SDS011;7350;51.208;4.238;2022-12-07T08:02:59;17.03;;;8.40;;
14526;SDS011;7350;51.208;4.238;2022-12-07T08:05:26;11.13;;;8.37;;
14526;SDS011;7350;51.208;4.238;2022-12-07T08:07:53;17.10;;;9.10;;
14526;SDS011;7350;51.208;4.238;2022-12-07T08:10:20;15.63;;;9.17;;
14526;SDS011;7350;51.208;4.238;2022-12-07T08:12:47;15.17;;;9.40;;
14526;SDS011;7350;51.208;4.238;2022-12-07T08:15:33;16.17;;;8.10;;
14526;SDS011;7350;51.208;4.238;2022-12-07T08:18:02;14.77;;;8.23;;
14526;SDS011;7350;51.208;4.238;2022-12-07T08:20:29;12.70;;;8.57;;
14526;SDS011;7350;51.208;4.238;2022-12-07T08:22:57;14.40;;;8.23;;
14526;SDS011;7350;51.208;4.238;2022-12-07T08:25:25;10.20;;;8.20;;
14526;SDS011;7350;51.208;4.238;2022-12-07T08:27:52;16.13;;;10.03;;
14526;SDS011;7350;51.208;4.238;2022-12-07T08:30:19;19.73;;;8.93;;
14526;SDS011;7350;51.208;4.238;2022-12-07T08:32:48;19.03;;;8.87;;
14526;SDS011;7350;51.208;4.238;2022-12-07T08:35:16;15.63;;;8.73;;
14526;SDS011;7350;51.208;4.238;2022-12-07T08:37:43;13.50;;;8.83;;
14526;SDS011;7350;51.208;4.238;2022-12-07T08:40:10;16.10;;;8.60;;
14526;SDS011;7350;51.208;4.238;2022-12-07T08:42:40;14.97;;;8.63;;
14526;SDS011;7350;51.208;4.238;2022-12-07T08:45:08;17.70;;;8.07;;
14526;SDS011;7350;51.208;4.238;2022-12-07T08:47:37;26.07;;;8.83;;
14526;SDS011;7350;51.208;4.238;2022-12-07T08:50:08;14.20;;;7.90;;
14526;SDS011;7350;51.208;4.238;2022-12-07T08:52:37;14.03;;;7.63;;
14526;SDS011;7350;51.208;4.238;2022-12-07T08:55:05;16.40;;;7.67;;
14526;SDS011;7350;51.208;4.238;2022-12-07T08:57:35;15.43;;;8.20;;
14526;SDS011;7350;51.208;4.238;2022-12-07T09:00:03;11.97;;;7.40;;
14526;SDS011;7350;51.208;4.238;2022-12-07T09:02:31;16.47;;;8.20;;
14526;SDS011;7350;51.208;4.238;2022-12-07T09:04:58;15.43;;;7.97;;
14526;SDS011;7350;51.208;4.238;2022-12-07T09:07:27;14.00;;;8.50;;
14526;SDS011;7350;51.208;4.238;2022-12-07T09:09:56;12.27;;;8.20;;
14526;SDS011;7350;51.208;4.238;2022-12-07T09:12:23;11.57;;;7.90;;
14526;SDS011;7350;51.208;4.238;2022-12-07T09:14:50;14.93;;;7.67;;
14526;SDS011;7350;51.208;4.238;2022-12-07T09:17:17;13.97;;;7.70;;
14526;SDS011;7350;51.208;4.238;2022-12-07T09:19:44;13.57;;;7.93;;
14526;SDS011;7350;51.208;4.238;2022-12-07T09:22:11;18.93;;;8.67;;
14526;SDS011;7350;51.208;4.238;2022-12-07T09:24:39;17.30;;;7.73;;
14526;SDS011;7350;51.208;4.238;2022-12-07T09:27:06;15.17;;;8.27;;
14526;SDS011;7350;51.208;4.238;2022-12-07T09:29:33;15.50;;;7.77;;
14526;SDS011;7350;51.208;4.238;2022-12-07T09:32:00;12.63;;;7.80;;
14526;SDS011;7350;51.208;4.238;2022-12-07T09:34:30;15.60;;;9.37;;
14526;SDS011;7350;51.208;4.238;2022-12-07T09:36:57;19.13;;;12.00;;
14526;SDS011;7350;51.208;4.238;2022-12-07T09:39:28;17.07;;;10.97;;
14526;SDS011;7350;51.208;4.238;2022-12-07T09:41:56;18.30;;;9.60;;
14526;SDS011;7350;51.208;4.238;2022-12-07T09:44:25;13.10;;;7.40;;
14526;SDS011;7350;51.208;4.238;2022-12-07T09:46:53;12.57;;;7.00;;
14526;SDS011;7350;51.208;4.238;2022-12-07T09:49:22;12.87;;;6.73;;
14526;SDS011;7350;51.208;4.238;2022-12-07T09:51:59;13.60;;;6.33;;
14526;SDS011;7350;51.208;4.238;2022-12-07T09:54:28;11.93;;;6.47;;
14526;SDS011;7350;51.208;4.238;2022-12-07T09:56:57;9.83;;;6.40;;
14526;SDS011;7350;51.208;4.238;2022-12-07T09:59:25;9.97;;;6.33;;
14526;SDS011;7350;51.208;4.238;2022-12-07T10:01:52;14.73;;;7.07;;
14526;SDS011;7350;51.208;4.238;2022-12-07T10:04:20;15.90;;;8.17;;
14526;SDS011;7350;51.208;4.238;2022-12-07T10:06:50;19.17;;;7.97;;
14526;SDS011;7350;51.208;4.238;2022-12-07T10:09:18;13.73;;;7.50;;
14526;SDS011;7350;51.208;4.238;2022-12-07T10:12:01;17.50;;;8.27;;
14526;SDS011;7350;51.208;4.238;2022-12-07T10:14:30;14.93;;;7.20;;
14526;SDS011;7350;51.208;4.238;2022-12-07T10:16:58;15.50;;;7.50;;
14526;SDS011;7350;51.208;4.238;2022-12-07T10:19:26;12.17;;;7.17;;
14526;SDS011;7350;51.208;4.238;2022-12-07T10:24:43;12.20;;;7.10;;
14526;SDS011;7350;51.208;4.238;2022-12-07T10:27:19;13.53;;;6.70;;
14526;SDS011;7350;51.208;4.238;2022-12-07T10:29:48;12.63;;;6.67;;
14526;SDS011;7350;51.208;4.238;2022-12-07T10:32:28;11.30;;;5.80;;
14526;SDS011;7350;51.208;4.238;2022-12-07T10:37:47;13.77;;;6.30;;
14526;SDS011;7350;51.208;4.238;2022-12-07T10:40:26;11.50;;;6.37;;
14526;SDS011;7350;51.208;4.238;2022-12-07T10:43:03;10.03;;;5.97;;
14526;SDS011;7350;51.208;4.238;2022-12-07T10:45:54;15.17;;;5.90;;
14526;SDS011;7350;51.208;4.238;2022-12-07T10:48:33;13.30;;;5.70;;
14526;SDS011;7350;51.208;4.238;2022-12-07T10:51:08;11.67;;;5.17;;
14526;SDS011;7350;51.208;4.238;2022-12-07T10:53:48;11.17;;;4.87;;
14526;SDS011;7350;51.208;4.238;2022-12-07T10:59:30;9.50;;;4.57;;
14526;SDS011;7350;51.208;4.238;2022-12-07T11:02:23;10.50;;;4.00;;
14526;SDS011;7350;51.208;4.238;2022-12-07T11:05:16;8.70;;;3.83;;
14526;SDS011;7350;51.208;4.238;2022-12-07T11:07:53;7.43;;;4.40;;
14526;SDS011;7350;51.208;4.238;2022-12-07T11:10:29;8.67;;;3.87;;
14526;SDS011;7350;51.208;4.238;2022-12-07T11:13:11;6.67;;;4.30;;
14526;SDS011;7350;51.208;4.238;2022-12-07T11:15:52;6.83;;;3.60;;
14526;SDS011;7350;51.208;4.238;2022-12-07T11:18:44;7.00;;;3.07;;
14526;SDS011;7350;51.208;4.238;2022-12-07T11:21:23;5.53;;;2.60;;
14526;SDS011;7350;51.208;4.238;2022-12-07T11:23:57;5.20;;;2.67;;
14526;SDS011;7350;51.208;4.238;2022-12-07T11:26:34;6.30;;;3.10;;
14526;SDS011;7350;51.208;4.238;2022-12-07T11:29:15;4.87;;;3.03;;
14526;SDS011;7350;51.208;4.238;2022-12-07T11:31:58;4.90;;;2.90;;
14526;SDS011;7350;51.208;4.238;2022-12-07T11:34:34;4.67;;;3.73;;
14526;SDS011;7350;51.208;4.238;2022-12-07T11:37:07;8.83;;;4.33;;
14526;SDS011;7350;51.208;4.238;2022-12-07T11:39:39;12.27;;;4.17;;
14526;SDS011;7350;51.208;4.238;2022-12-07T11:42:13;11.00;;;4.00;;
14526;SDS011;7350;51.208;4.238;2022-12-07T11:44:45;5.73;;;3.30;;
14526;SDS011;7350;51.208;4.238;2022-12-07T11:47:20;7.80;;;3.83;;
14526;SDS011;7350;51.208;4.238;2022-12-07T11:49:53;13.80;;;4.00;;
14526;SDS011;7350;51.208;4.238;2022-12-07T11:52:25;7.37;;;3.67;;
14526;SDS011;7350;51.208;4.238;2022-12-07T11:54:57;8.40;;;3.70;;
14526;SDS011;7350;51.208;4.238;2022-12-07T11:57:28;6.13;;;3.10;;
14526;SDS011;7350;51.208;4.238;2022-12-07T12:00:03;8.67;;;3.30;;
14526;SDS011;7350;51.208;4.238;2022-12-07T12:02:35;6.80;;;2.80;;
14526;SDS011;7350;51.208;4.238;2022-12-07T12:05:12;4.63;;;3.10;;
14526;SDS011;7350;51.208;4.238;2022-12-07T12:07:42;7.30;;;2.60;;
14526;SDS011;7350;51.208;4.238;2022-12-07T12:10:16;5.67;;;2.70;;
14526;SDS011;7350;51.208;4.238;2022-12-07T12:12:54;8.97;;;3.40;;
14526;SDS011;7350;51.208;4.238;2022-12-07T12:15:42;7.27;;;2.67;;
14526;SDS011;7350;51.208;4.238;2022-12-07T12:18:27;8.37;;;2.77;;
14526;SDS011;7350;51.208;4.238;2022-12-07T12:21:02;10.57;;;2.90;;
14526;SDS011;7350;51.208;4.238;2022-12-07T12:23:35;10.40;;;2.97;;
14526;SDS011;7350;51.208;4.238;2022-12-07T12:26:06;13.77;;;4.20;;
14526;SDS011;7350;51.208;4.238;2022-12-07T12:28:40;13.20;;;5.40;;
14526;SDS011;7350;51.208;4.238;2022-12-07T12:31:16;7.87;;;3.97;;
14526;SDS011;7350;51.208;4.238;2022-12-07T12:34:02;8.70;;;3.93;;
14526;SDS011;7350;51.208;4.238;2022-12-07T12:39:18;9.60;;;3.83;;
14526;SDS011;7350;51.208;4.238;2022-12-07T12:41:53;33.23;;;15.93;;
14526;SDS011;7350;51.208;4.238;2022-12-07T12:47:38;27.53;;;13.93;;
14526;SDS011;7350;51.208;4.238;2022-12-07T12:50:15;12.23;;;5.10;;
14526;SDS011;7350;51.208;4.238;2022-12-07T12:52:49;14.73;;;7.13;;
14526;SDS011;7350;51.208;4.238;2022-12-07T12:58:38;8.33;;;3.37;;
14526;SDS011;7350;51.208;4.238;2022-12-07T13:04:21;0.93;;;0.90;;
14526;SDS011;7350;51.208;4.238;2022-12-07T13:07:06;2.77;;;0.90;;
14526;SDS011;7350;51.208;4.238;2022-12-07T13:09:42;1.47;;;0.70;;
14526;SDS011;7350;51.208;4.238;2022-12-07T13:12:14;1.33;;;0.60;;
14526;SDS011;7350;51.208;4.238;2022-12-07T13:14:53;1.13;;;0.50;;
14526;SDS011;7350;51.208;4.238;2022-12-07T13:20:46;0.70;;;0.60;;
14526;SDS011;7350;51.208;4.238;2022-12-07T13:23:20;3.80;;;1.00;;
14526;SDS011;7350;51.208;4.238;2022-12-07T13:25:59;2.63;;;0.90;;
14526;SDS011;7350;51.208;4.238;2022-12-07T13:28:35;3.67;;;1.20;;
14526;SDS011;7350;51.208;4.238;2022-12-07T13:31:18;2.43;;;1.10;;
14526;SDS011;7350;51.208;4.238;2022-12-07T13:33:49;4.07;;;1.47;;
14526;SDS011;7350;51.208;4.238;2022-12-07T13:36:21;3.20;;;1.70;;
14526;SDS011;7350;51.208;4.238;2022-12-07T13:38:52;3.13;;;1.60;;
14526;SDS011;7350;51.208;4.238;2022-12-07T13:41:24;4.63;;;2.40;;
14526;SDS011;7350;51.208;4.238;2022-12-07T13:44:01;3.97;;;2.50;;
14526;SDS011;7350;51.208;4.238;2022-12-07T13:46:35;3.70;;;1.43;;
14526;SDS011;7350;51.208;4.238;2022-12-07T13:49:21;6.40;;;1.80;;
14526;SDS011;7350;51.208;4.238;2022-12-07T13:51:49;6.10;;;1.33;;
14526;SDS011;7350;51.208;4.238;2022-12-07T13:54:18;4.00;;;1.70;;
14526;SDS011;7350;51.208;4.238;2022-12-07T13:56:49;7.67;;;1.80;;
14526;SDS011;7350;51.208;4.238;2022-12-07T13:59:18;6.30;;;3.00;;
14526;SDS011;7350;51.208;4.238;2022-12-07T14:01:47;3.93;;;1.90;;
14526;SDS011;7350;51.208;4.238;2022-12-07T14:04:16;4.13;;;1.50;;
14526;SDS011;7350;51.208;4.238;2022-12-07T14:06:49;3.87;;;1.30;;
14526;SDS011;7350;51.208;4.238;2022-12-07T14:09:19;3.33;;;1.40;;
14526;SDS011;7350;51.208;4.238;2022-12-07T14:11:47;2.53;;;1.33;;
14526;SDS011;7350;51.208;4.238;2022-12-07T14:14:17;4.17;;;1.60;;
14526;SDS011;7350;51.208;4.238;2022-12-07T14:16:54;13.07;;;5.80;;
14526;SDS011;7350;51.208;4.238;2022-12-07T14:19:46;15.10;;;9.67;;
14526;SDS011;7350;51.208;4.238;2022-12-07T14:22:19;3.97;;;3.30;;
14526;SDS011;7350;51.208;4.238;2022-12-07T14:24:57;5.50;;;3.10;;
14526;SDS011;7350;51.208;4.238;2022-12-07T14:27:30;4.70;;;2.07;;
14526;SDS011;7350;51.208;4.238;2022-12-07T14:29:59;4.33;;;2.13;;
14526;SDS011;7350;51.208;4.238;2022-12-07T14:32:27;7.33;;;2.47;;
14526;SDS011;7350;51.208;4.238;2022-12-07T14:34:56;5.07;;;2.50;;
14526;SDS011;7350;51.208;4.238;2022-12-07T14:37:29;8.33;;;2.23;;
14526;SDS011;7350;51.208;4.238;2022-12-07T14:39:58;5.97;;;2.33;;
14526;SDS011;7350;51.208;4.238;2022-12-07T14:42:26;4.33;;;2.07;;
14526;SDS011;7350;51.208;4.238;2022-12-07T14:44:54;5.00;;;2.57;;
14526;SDS011;7350;51.208;4.238;2022-12-07T14:47:22;5.20;;;2.40;;
14526;SDS011;7350;51.208;4.238;2022-12-07T14:49:49;6.00;;;2.30;;
14526;SDS011;7350;51.208;4.238;2022-12-07T14:52:17;6.03;;;2.17;;
14526;SDS011;7350;51.208;4.238;2022-12-07T14:54:48;11.07;;;5.50;;
14526;SDS011;7350;51.208;4.238;2022-12-07T14:57:16;10.30;;;4.00;;
14526;SDS011;7350;51.208;4.238;2022-12-07T14:59:43;7.93;;;4.07;;
14526;SDS011;7350;51.208;4.238;2022-12-07T15:02:11;5.87;;;3.37;;
14526;SDS011;7350;51.208;4.238;2022-12-07T15:04:39;5.83;;;3.10;;
14526;SDS011;7350;51.208;4.238;2022-12-07T15:07:09;15.57;;;8.50;;
14526;SDS011;7350;51.208;4.238;2022-12-07T15:09:41;8.73;;;4.27;;
14526;SDS011;7350;51.208;4.238;2022-12-07T15:12:08;7.80;;;4.87;;
14526;SDS011;7350;51.208;4.238;2022-12-07T15:14:36;8.40;;;3.70;;
14526;SDS011;7350;51.208;4.238;2022-12-07T15:17:03;9.33;;;5.27;;
14526;SDS011;7350;51.208;4.238;2022-12-07T15:19:30;13.47;;;7.93;;
14526;SDS011;7350;51.208;4.238;2022-12-07T15:21:57;11.90;;;10.70;;
14526;SDS011;7350;51.208;4.238;2022-12-07T15:24:25;12.87;;;8.57;;
14526;SDS011;7350;51.208;4.238;2022-12-07T15:26:52;11.30;;;5.60;;
14526;SDS011;7350;51.208;4.238;2022-12-07T15:29:19;15.97;;;7.97;;
14526;SDS011;7350;51.208;4.238;2022-12-07T15:31:49;11.63;;;5.80;;
14526;SDS011;7350;51.208;4.238;2022-12-07T15:34:16;17.73;;;10.83;;